Time;durP1;ratioP1;P1;durP2;ratioP2;P2;SDS_P1;SDS_P2;PMS_P1;PMS_P2;Temp;Humidity;BMP_temperature;BMP_pressure;BME280_temperature;BME280_humidity;BME280_pressure;Samples;Min_cycle;Max_cycle;Signal;HPM_P1;HPM_P2
2023/10/14 00:01:28;;;;;;;12.13;2.13;;;;;;;;;;5022824;28;20248;-38
2023/10/14 00:03:57;;;;;;;11.57;1.83;;;;;;;;;;5027450;28;20127;-39
2023/10/14 00:06:27;;;;;;;10.47;1.23;;;;;;;;;;5022430;28;20047;-38
2023/10/14 00:08:57;;;;;;;11.73;1.55;;;;;;;;;;5027644;28;20131;-38
2023/10/14 00:11:32;;;;;;;11.05;1.67;;;;;;;;;;5017253;28;20412;-38
2023/10/14 00:14:02;;;;;;;9.10;1.13;;;;;;;;;;5035338;28;20037;-38
2023/10/14 00:16:35;;;;;;;13.52;1.35;;;;;;;;;;5016341;28;20068;-38
2023/10/14 00:19:04;;;;;;;7.17;1.13;;;;;;;;;;5023144;28;20463;-41
2023/10/14 00:21:34;;;;;;;11.77;1.58;;;;;;;;;;5027037;28;20063;-38
2023/10/14 00:24:04;;;;;;;7.30;1.15;;;;;;;;;;5024001;28;20040;-38
2023/10/14 00:26:32;;;;;;;10.23;1.08;;;;;;;;;;5023782;28;20119;-39
2023/10/14 00:29:19;;;;;;;10.13;1.50;;;;;;;;;;5015398;28;20032;-39
2023/10/14 00:31:49;;;;;;;18.80;1.90;;;;;;;;;;5021940;28;20070;-38
2023/10/14 00:34:18;;;;;;;15.73;1.65;;;;;;;;;;5034855;28;20041;-39
2023/10/14 00:36:47;;;;;;;11.45;1.30;;;;;;;;;;5017488;28;20625;-38
2023/10/14 00:39:16;;;;;;;10.80;1.27;;;;;;;;;;5026764;28;20121;-38
2023/10/14 00:41:45;;;;;;;23.13;2.30;;;;;;;;;;5011946;28;20037;-40
2023/10/14 00:44:13;;;;;;;10.67;1.20;;;;;;;;;;5026809;28;20048;-38
2023/10/14 00:46:48;;;;;;;10.65;1.20;;;;;;;;;;5007600;28;20232;-38
2023/10/14 00:49:17;;;;;;;7.63;1.50;;;;;;;;;;5022718;28;20090;-38
2023/10/14 00:51:49;;;;;;;11.48;1.20;;;;;;;;;;5028722;28;20056;-38
2023/10/14 00:54:27;;;;;;;14.25;1.45;;;;;;;;;;5022239;28;20036;-39
2023/10/14 00:57:01;;;;;;;11.60;2.03;;;;;;;;;;5021711;28;20052;-38
2023/10/14 00:59:29;;;;;;;10.00;1.20;;;;;;;;;;5023450;28;20045;-39
2023/10/14 01:01:58;;;;;;;9.88;1.77;;;;;;;;;;5019374;28;20037;-38
2023/10/14 01:04:32;;;;;;;12.73;1.20;;;;;;;;;;5031986;28;20418;-39
2023/10/14 01:07:04;;;;;;;11.65;1.10;;;;;;;;;;5019810;28;20054;-39
2023/10/14 01:09:41;;;;;;;9.83;1.00;;;;;;;;;;5032820;28;20044;-39
2023/10/14 01:12:18;;;;;;;12.55;1.40;;;;;;;;;;5016468;28;20475;-39
2023/10/14 01:14:46;;;;;;;8.43;1.33;;;;;;;;;;5028745;28;20048;-39
2023/10/14 01:17:24;;;;;;;11.18;1.55;;;;;;;;;;5023935;28;20041;-39
2023/10/14 01:19:53;;;;;;;15.40;1.35;;;;;;;;;;5021266;28;20068;-39
2023/10/14 01:22:22;;;;;;;11.60;1.60;;;;;;;;;;5023099;28;20056;-40
2023/10/14 01:24:52;;;;;;;10.38;1.48;;;;;;;;;;5029701;28;20742;-39
2023/10/14 01:27:21;;;;;;;9.02;1.20;;;;;;;;;;5002715;28;20120;-39
2023/10/14 01:29:52;;;;;;;11.98;1.20;;;;;;;;;;5040174;28;20041;-40
2023/10/14 01:32:42;;;;;;;17.25;1.48;;;;;;;;;;5024312;28;20127;-40
2023/10/14 01:35:23;;;;;;;9.33;1.07;;;;;;;;;;5016876;28;20041;-39
2023/10/14 01:37:55;;;;;;;8.40;1.23;;;;;;;;;;5017979;28;20033;-40
2023/10/14 01:40:29;;;;;;;6.60;0.80;;;;;;;;;;5032261;28;20048;-40
2023/10/14 01:42:58;;;;;;;7.60;0.90;;;;;;;;;;5013284;28;20112;-39
2023/10/14 01:45:31;;;;;;;8.55;0.95;;;;;;;;;;5035430;28;20099;-39
2023/10/14 01:48:12;;;;;;;6.00;0.93;;;;;;;;;;5012176;28;20056;-39
2023/10/14 01:50:44;;;;;;;7.57;0.90;;;;;;;;;;5030997;28;20051;-39
2023/10/14 01:53:17;;;;;;;7.60;0.70;;;;;;;;;;5021052;28;20041;-39
2023/10/14 01:55:47;;;;;;;7.28;0.70;;;;;;;;;;5033707;28;20483;-39
2023/10/14 01:58:22;;;;;;;10.98;1.20;;;;;;;;;;5023839;28;20056;-39
2023/10/14 02:00:53;;;;;;;9.73;1.00;;;;;;;;;;5010445;28;20044;-38
2023/10/14 02:03:21;;;;;;;11.55;1.02;;;;;;;;;;5031984;28;20041;-39
2023/10/14 02:05:51;;;;;;;13.60;0.90;;;;;;;;;;5028027;28;20045;-38
2023/10/14 02:08:22;;;;;;;8.35;0.90;;;;;;;;;;5024642;28;20847;-39
2023/10/14 02:10:50;;;;;;;16.23;1.52;;;;;;;;;;5030433;28;20036;-39
2023/10/14 02:13:19;;;;;;;8.07;0.80;;;;;;;;;;5025302;28;20048;-39
2023/10/14 02:15:47;;;;;;;11.20;1.52;;;;;;;;;;5024479;28;20117;-39
2023/10/14 02:18:20;;;;;;;11.38;1.10;;;;;;;;;;5027248;28;20048;-39
2023/10/14 02:23:44;;;;;;;9.77;0.95;;;;;;;;;;5026318;28;20033;-39
2023/10/14 02:26:22;;;;;;;5.93;0.80;;;;;;;;;;5032724;28;20199;-38
2023/10/14 02:28:52;;;;;;;9.05;0.60;;;;;;;;;;5024269;28;20507;-39
2023/10/14 02:31:29;;;;;;;8.05;0.80;;;;;;;;;;5033704;28;20041;-39
2023/10/14 02:33:59;;;;;;;7.68;0.82;;;;;;;;;;5030550;28;20033;-39
2023/10/14 02:36:29;;;;;;;12.18;1.65;;;;;;;;;;5023717;28;20033;-39
2023/10/14 02:38:58;;;;;;;11.27;0.70;;;;;;;;;;5028468;28;20040;-40
2023/10/14 02:41:29;;;;;;;15.77;1.50;;;;;;;;;;4989877;28;20692;-39
2023/10/14 02:44:19;;;;;;;9.30;1.00;;;;;;;;;;5036768;28;20114;-39
2023/10/14 02:46:54;;;;;;;16.02;2.13;;;;;;;;;;5008675;28;20055;-39
2023/10/14 02:49:25;;;;;;;7.97;1.15;;;;;;;;;;5039119;28;20044;-39
2023/10/14 02:52:00;;;;;;;9.43;0.93;;;;;;;;;;5038049;28;20048;-38
2023/10/14 02:54:33;;;;;;;9.63;1.00;;;;;;;;;;5027837;28;20119;-39
2023/10/14 02:57:10;;;;;;;8.73;0.75;;;;;;;;;;5035913;28;20056;-40
2023/10/14 02:59:44;;;;;;;8.35;0.85;;;;;;;;;;5022017;28;20028;-39
2023/10/14 03:02:16;;;;;;;9.65;0.90;;;;;;;;;;5019232;28;20039;-39
2023/10/14 03:04:48;;;;;;;9.10;0.80;;;;;;;;;;5034835;28;20048;-40
2023/10/14 03:07:23;;;;;;;9.55;0.52;;;;;;;;;;5018182;28;20056;-39
2023/10/14 03:09:52;;;;;;;15.43;1.05;;;;;;;;;;5030014;28;20052;-39
2023/10/14 03:12:21;;;;;;;9.82;0.70;;;;;;;;;;5034841;28;20964;-39
2023/10/14 03:14:50;;;;;;;8.55;0.85;;;;;;;;;;5032769;28;20413;-39
2023/10/14 03:17:24;;;;;;;6.13;0.90;;;;;;;;;;5001828;28;20401;-39
2023/10/14 03:19:56;;;;;;;6.13;1.77;;;;;;;;;;5009351;28;20132;-39
2023/10/14 03:22:26;;;;;;;8.43;0.80;;;;;;;;;;5017727;28;20041;-38
2023/10/14 03:25:04;;;;;;;14.50;1.10;;;;;;;;;;4978768;28;20044;-39
2023/10/14 03:27:32;;;;;;;9.93;1.20;;;;;;;;;;5006592;28;20068;-39
2023/10/14 03:30:00;;;;;;;7.33;0.70;;;;;;;;;;5015484;28;20057;-39
2023/10/14 03:32:33;;;;;;;9.82;1.05;;;;;;;;;;5010071;28;20045;-39
2023/10/14 03:35:11;;;;;;;9.20;1.05;;;;;;;;;;4981378;28;20042;-40
2023/10/14 03:37:45;;;;;;;6.13;0.95;;;;;;;;;;5018583;28;20139;-39
2023/10/14 03:40:51;;;;;;;5.90;0.60;;;;;;;;;;5004173;28;20045;-39
2023/10/14 03:43:19;;;;;;;8.10;0.90;;;;;;;;;;5011473;28;20069;-41
2023/10/14 03:45:53;;;;;;;7.20;0.95;;;;;;;;;;5007107;28;20045;-39
2023/10/14 03:48:23;;;;;;;12.68;1.00;;;;;;;;;;5011701;28;20149;-39
2023/10/14 03:51:02;;;;;;;11.40;0.93;;;;;;;;;;5000230;28;20048;-39
2023/10/14 03:53:31;;;;;;;10.50;1.00;;;;;;;;;;5008331;28;20762;-39
2023/10/14 03:56:01;;;;;;;7.73;0.90;;;;;;;;;;5011916;28;20076;-39
2023/10/14 03:58:30;;;;;;;6.70;0.65;;;;;;;;;;5014810;28;20045;-39
2023/10/14 04:00:58;;;;;;;6.70;0.77;;;;;;;;;;5008124;28;20041;-38
2023/10/14 04:03:39;;;;;;;8.13;0.63;;;;;;;;;;5012254;28;20052;-39
2023/10/14 04:06:09;;;;;;;10.55;0.90;;;;;;;;;;4994854;28;20510;-39
2023/10/14 04:08:47;;;;;;;11.03;0.90;;;;;;;;;;5014434;28;20041;-40
2023/10/14 04:11:25;;;;;;;9.07;1.20;;;;;;;;;;4996828;28;20039;-39
2023/10/14 04:14:02;;;;;;;9.27;0.77;;;;;;;;;;5017968;28;20087;-39
2023/10/14 04:16:37;;;;;;;11.10;1.25;;;;;;;;;;5008395;28;20041;-39
2023/10/14 04:19:19;;;;;;;7.07;1.13;;;;;;;;;;5010191;28;20262;-39
2023/10/14 04:21:53;;;;;;;11.53;2.10;;;;;;;;;;5013463;28;20125;-39
2023/10/14 04:24:28;;;;;;;7.03;1.08;;;;;;;;;;4998618;28;20061;-39
2023/10/14 04:29:39;;;;;;;8.32;0.95;;;;;;;;;;5010056;28;20037;-39
2023/10/14 04:32:14;;;;;;;9.70;1.00;;;;;;;;;;4996442;28;20037;-40
2023/10/14 04:34:42;;;;;;;8.23;0.90;;;;;;;;;;5011141;28;20516;-39
2023/10/14 04:37:16;;;;;;;11.63;1.45;;;;;;;;;;5007600;28;20107;-39
2023/10/14 04:39:44;;;;;;;11.07;0.65;;;;;;;;;;5013435;28;20037;-39
2023/10/14 04:42:27;;;;;;;9.30;1.05;;;;;;;;;;5006972;28;20130;-38
2023/10/14 04:44:55;;;;;;;7.97;0.60;;;;;;;;;;5011576;28;20120;-39
2023/10/14 04:47:35;;;;;;;10.93;0.80;;;;;;;;;;5002311;28;20053;-39
2023/10/14 04:50:11;;;;;;;10.57;1.33;;;;;;;;;;5015966;28;20188;-39
2023/10/14 04:52:41;;;;;;;14.85;1.25;;;;;;;;;;4988588;28;20790;-39
2023/10/14 04:55:21;;;;;;;9.23;0.55;;;;;;;;;;5012566;28;20041;-39
2023/10/14 04:58:06;;;;;;;7.05;1.15;;;;;;;;;;5004989;28;20045;-39
2023/10/14 05:00:41;;;;;;;10.13;0.80;;;;;;;;;;4994046;28;20033;-39
2023/10/14 05:03:09;;;;;;;10.05;1.00;;;;;;;;;;5012711;28;20049;-39
2023/10/14 05:05:38;;;;;;;17.02;1.38;;;;;;;;;;4989281;28;20041;-39
2023/10/14 05:08:07;;;;;;;13.07;0.93;;;;;;;;;;5011267;28;20523;-39
2023/10/14 05:10:41;;;;;;;11.50;0.82;;;;;;;;;;5003465;28;20040;-39
2023/10/14 05:13:09;;;;;;;13.10;0.70;;;;;;;;;;5007520;28;20527;-40
2023/10/14 05:15:42;;;;;;;6.38;0.85;;;;;;;;;;5002912;28;20086;-39
2023/10/14 05:18:15;;;;;;;9.43;0.75;;;;;;;;;;4998910;28;20120;-39
2023/10/14 05:23:32;;;;;;;8.60;1.23;;;;;;;;;;4999976;28;20045;-39
2023/10/14 05:26:06;;;;;;;6.40;0.60;;;;;;;;;;4991025;28;20045;-39
2023/10/14 05:28:37;;;;;;;8.52;0.98;;;;;;;;;;5008135;28;20049;-39
2023/10/14 05:31:08;;;;;;;10.10;1.20;;;;;;;;;;4994764;28;20056;-39
2023/10/14 05:33:36;;;;;;;10.95;0.82;;;;;;;;;;5009881;28;20126;-39
2023/10/14 05:36:05;;;;;;;13.13;1.23;;;;;;;;;;5000902;28;20041;-39
2023/10/14 05:38:32;;;;;;;7.40;0.90;;;;;;;;;;5005112;28;20044;-38
2023/10/14 05:41:06;;;;;;;13.40;1.33;;;;;;;;;;5002056;28;20052;-39
2023/10/14 05:43:36;;;;;;;8.63;1.00;;;;;;;;;;5006345;28;20056;-39
2023/10/14 05:46:08;;;;;;;9.35;1.00;;;;;;;;;;4998392;28;20049;-39
2023/10/14 05:48:34;;;;;;;9.50;1.20;;;;;;;;;;5000219;28;20048;-39
2023/10/14 05:51:02;;;;;;;6.17;0.93;;;;;;;;;;4999595;28;20557;-39
2023/10/14 05:53:31;;;;;;;13.93;0.93;;;;;;;;;;5013891;28;20056;-39
2023/10/14 05:56:09;;;;;;;13.65;1.00;;;;;;;;;;4998073;28;20048;-38
2023/10/14 05:58:40;;;;;;;12.88;1.00;;;;;;;;;;5007690;28;20080;-39
2023/10/14 06:01:08;;;;;;;9.68;0.70;;;;;;;;;;5000040;28;20045;-39
2023/10/14 06:03:37;;;;;;;6.63;0.80;;;;;;;;;;5000113;28;20044;-39
2023/10/14 06:06:09;;;;;;;11.20;0.88;;;;;;;;;;4993763;28;20120;-40
2023/10/14 06:08:37;;;;;;;6.88;0.60;;;;;;;;;;4996969;28;20041;-39
2023/10/14 06:11:06;;;;;;;7.82;0.65;;;;;;;;;;5004796;28;20045;-39
2023/10/14 06:13:35;;;;;;;12.38;1.38;;;;;;;;;;5004204;28;20048;-39
2023/10/14 06:16:09;;;;;;;12.30;0.70;;;;;;;;;;4989714;28;20053;-39
2023/10/14 06:18:38;;;;;;;8.10;0.60;;;;;;;;;;5001637;28;20041;-38
2023/10/14 06:21:07;;;;;;;9.00;0.75;;;;;;;;;;4999742;28;20051;-39
2023/10/14 06:23:34;;;;;;;12.57;1.20;;;;;;;;;;5009334;28;20040;-39
2023/10/14 06:26:05;;;;;;;9.65;0.82;;;;;;;;;;4998296;28;20835;-38
2023/10/14 06:28:33;;;;;;;14.90;1.00;;;;;;;;;;4998198;28;20044;-39
2023/10/14 06:31:03;;;;;;;9.65;0.80;;;;;;;;;;4987435;28;20177;-39
2023/10/14 06:33:33;;;;;;;8.23;0.77;;;;;;;;;;5013726;28;20570;-39
2023/10/14 06:36:03;;;;;;;9.52;0.55;;;;;;;;;;4997245;28;20448;-39
2023/10/14 06:38:33;;;;;;;9.57;1.30;;;;;;;;;;4992878;28;20681;-38
2023/10/14 06:41:02;;;;;;;11.43;1.10;;;;;;;;;;5000111;28;20333;-38
2023/10/14 06:43:33;;;;;;;12.32;1.00;;;;;;;;;;4998377;28;20714;-39
2023/10/14 06:46:04;;;;;;;7.70;1.10;;;;;;;;;;5000856;28;20045;-39
2023/10/14 06:48:38;;;;;;;12.20;0.70;;;;;;;;;;5007966;28;20056;-38
2023/10/14 06:51:09;;;;;;;10.38;1.33;;;;;;;;;;4986871;28;20237;-38
2023/10/14 06:53:39;;;;;;;13.13;1.00;;;;;;;;;;5007232;28;20550;-38
2023/10/14 06:56:11;;;;;;;16.30;1.75;;;;;;;;;;4997807;28;20042;-39
2023/10/14 06:58:39;;;;;;;10.18;1.50;;;;;;;;;;5004724;28;20045;-38
2023/10/14 07:01:07;;;;;;;17.25;1.42;;;;;;;;;;4995492;28;20045;-38
2023/10/14 07:03:38;;;;;;;10.98;0.93;;;;;;;;;;5007054;28;20044;-38
2023/10/14 07:06:09;;;;;;;6.77;0.67;;;;;;;;;;5002390;28;20406;-39
2023/10/14 07:08:39;;;;;;;9.95;2.13;;;;;;;;;;5004620;28;20119;-38
2023/10/14 07:11:07;;;;;;;8.50;1.33;;;;;;;;;;5000145;28;20504;-38
2023/10/14 07:13:38;;;;;;;8.07;0.93;;;;;;;;;;4996776;28;20048;-39
2023/10/14 07:16:09;;;;;;;7.40;1.08;;;;;;;;;;4996362;28;20056;-38
2023/10/14 07:18:39;;;;;;;12.03;1.20;;;;;;;;;;5015065;28;20048;-39
2023/10/14 07:21:12;;;;;;;11.25;1.30;;;;;;;;;;5000004;28;20052;-39
2023/10/14 07:23:42;;;;;;;10.52;0.88;;;;;;;;;;5006714;28;20478;-38
2023/10/14 07:26:11;;;;;;;9.35;1.33;;;;;;;;;;5007746;28;20099;-39
2023/10/14 07:28:43;;;;;;;11.32;1.40;;;;;;;;;;4996432;28;20057;-39
2023/10/14 07:31:12;;;;;;;9.33;1.30;;;;;;;;;;5004890;28;20037;-38
2023/10/14 07:33:41;;;;;;;11.10;0.90;;;;;;;;;;5010989;28;20040;-39
2023/10/14 07:36:11;;;;;;;17.48;2.20;;;;;;;;;;5011880;28;20403;-38
2023/10/14 07:38:42;;;;;;;11.68;0.90;;;;;;;;;;5001869;28;20045;-39
2023/10/14 07:41:11;;;;;;;11.07;1.00;;;;;;;;;;5001607;28;20046;-38
2023/10/14 07:43:39;;;;;;;11.70;1.40;;;;;;;;;;5000139;28;20110;-39
2023/10/14 07:46:08;;;;;;;9.82;0.80;;;;;;;;;;5014978;28;20045;-39
2023/10/14 07:48:37;;;;;;;8.82;0.75;;;;;;;;;;5000051;28;20042;-38
2023/10/14 07:51:07;;;;;;;15.27;0.77;;;;;;;;;;5001035;28;21020;-39
2023/10/14 07:53:58;;;;;;;9.00;0.77;;;;;;;;;;5007518;28;20046;-39
2023/10/14 07:56:27;;;;;;;9.20;0.70;;;;;;;;;;5013982;28;20457;-39
2023/10/14 07:58:55;;;;;;;10.15;0.80;;;;;;;;;;4996672;28;20496;-39
2023/10/14 08:01:25;;;;;;;10.45;0.93;;;;;;;;;;5006382;28;20589;-38
2023/10/14 08:03:57;;;;;;;9.13;0.80;;;;;;;;;;5003729;28;20059;-39
2023/10/14 08:06:27;;;;;;;12.60;1.73;;;;;;;;;;5012875;28;20037;-39
2023/10/14 08:08:55;;;;;;;8.60;1.03;;;;;;;;;;5006920;28;21037;-39
2023/10/14 08:11:23;;;;;;;6.10;0.52;;;;;;;;;;5010161;28;20049;-38
2023/10/14 08:13:50;;;;;;;14.35;1.13;;;;;;;;;;5001891;28;20041;-39
2023/10/14 08:16:20;;;;;;;10.63;1.10;;;;;;;;;;5008899;28;21809;-38
2023/10/14 08:18:48;;;;;;;11.50;0.95;;;;;;;;;;5005551;28;20586;-39
2023/10/14 08:21:16;;;;;;;7.90;0.90;;;;;;;;;;5004125;28;20064;-39
2023/10/14 08:23:45;;;;;;;7.07;0.93;;;;;;;;;;5008368;28;20512;-40
2023/10/14 08:26:13;;;;;;;9.38;1.02;;;;;;;;;;5006679;28;20192;-40
2023/10/14 08:28:43;;;;;;;12.50;0.88;;;;;;;;;;5001793;28;20053;-39
2023/10/14 08:31:11;;;;;;;6.82;1.10;;;;;;;;;;5008972;28;20234;-38
2023/10/14 08:33:40;;;;;;;8.77;0.90;;;;;;;;;;5004565;28;20041;-39
2023/10/14 08:36:13;;;;;;;11.63;1.23;;;;;;;;;;5012379;28;20043;-40
2023/10/14 08:38:44;;;;;;;10.88;0.77;;;;;;;;;;4996369;28;20411;-39
2023/10/14 08:41:15;;;;;;;12.30;0.90;;;;;;;;;;5009128;28;20550;-39
2023/10/14 08:43:44;;;;;;;13.90;0.88;;;;;;;;;;5005160;28;20124;-39
2023/10/14 08:46:17;;;;;;;6.93;0.53;;;;;;;;;;4985328;28;20045;-39
2023/10/14 08:48:50;;;;;;;10.90;0.70;;;;;;;;;;5007549;28;20051;-39
2023/10/14 08:51:17;;;;;;;8.45;0.70;;;;;;;;;;4998148;28;20124;-39
2023/10/14 08:53:46;;;;;;;10.05;0.80;;;;;;;;;;5009931;28;20128;-39
2023/10/14 08:56:17;;;;;;;6.22;0.60;;;;;;;;;;4996986;28;20064;-39
2023/10/14 08:58:48;;;;;;;14.43;1.63;;;;;;;;;;5010304;28;20512;-41
2023/10/14 09:01:17;;;;;;;9.50;1.00;;;;;;;;;;5002534;28;20491;-39
2023/10/14 09:03:46;;;;;;;7.38;0.50;;;;;;;;;;5001035;28;20052;-39
2023/10/14 09:06:13;;;;;;;8.77;0.68;;;;;;;;;;5006770;28;20044;-39
2023/10/14 09:08:42;;;;;;;6.40;0.60;;;;;;;;;;5006328;28;20045;-39
2023/10/14 09:11:25;;;;;;;11.70;1.63;;;;;;;;;;5006914;28;20052;-39
2023/10/14 09:14:00;;;;;;;11.30;1.00;;;;;;;;;;5007366;28;20498;-39
2023/10/14 09:16:32;;;;;;;10.55;1.27;;;;;;;;;;4999508;28;20069;-39
2023/10/14 09:19:01;;;;;;;8.60;0.85;;;;;;;;;;5012088;28;20037;-39
2023/10/14 09:21:30;;;;;;;4.70;0.52;;;;;;;;;;4984918;28;20059;-38
2023/10/14 09:24:03;;;;;;;10.03;1.00;;;;;;;;;;4967625;28;20053;-38
2023/10/14 09:26:38;;;;;;;14.40;2.25;;;;;;;;;;5003017;28;20049;-38
2023/10/14 09:29:09;;;;;;;10.05;1.30;;;;;;;;;;4997677;28;20063;-38
2023/10/14 09:31:38;;;;;;;7.03;1.08;;;;;;;;;;5000680;28;20037;-38
2023/10/14 09:34:08;;;;;;;8.90;0.60;;;;;;;;;;4997022;28;20153;-39
2023/10/14 09:36:42;;;;;;;7.53;0.67;;;;;;;;;;5000206;28;20685;-38
2023/10/14 09:39:24;;;;;;;7.10;0.43;;;;;;;;;;4971975;28;20393;-39
2023/10/14 09:41:54;;;;;;;6.25;0.40;;;;;;;;;;4998590;28;20051;-39
2023/10/14 09:44:25;;;;;;;9.85;1.00;;;;;;;;;;5012804;28;20058;-44
2023/10/14 09:46:55;;;;;;;5.13;0.70;;;;;;;;;;5002743;28;20037;-39
2023/10/14 09:49:24;;;;;;;5.73;0.53;;;;;;;;;;5000169;28;20045;-39
2023/10/14 09:51:54;;;;;;;6.47;0.60;;;;;;;;;;4973688;28;20496;-40
2023/10/14 09:54:23;;;;;;;6.93;0.70;;;;;;;;;;4992385;28;20044;-39
2023/10/14 09:56:52;;;;;;;3.72;0.40;;;;;;;;;;4994085;28;20037;-39
2023/10/14 09:59:22;;;;;;;4.70;0.90;;;;;;;;;;4279260;28;9999965;-38
2023/10/14 10:01:50;;;;;;;7.57;0.52;;;;;;;;;;4987646;28;20036;-38
2023/10/14 10:04:21;;;;;;;5.30;0.40;;;;;;;;;;4997879;28;20120;-39
2023/10/14 10:06:54;;;;;;;4.97;0.60;;;;;;;;;;4954073;28;20048;-38
2023/10/14 10:09:34;;;;;;;5.82;0.45;;;;;;;;;;4972660;28;21282;-38
2023/10/14 10:12:04;;;;;;;4.95;0.50;;;;;;;;;;4947930;28;20058;-39
2023/10/14 10:14:37;;;;;;;3.15;0.45;;;;;;;;;;5006021;28;20947;-38
2023/10/14 10:17:08;;;;;;;5.00;0.35;;;;;;;;;;4998011;28;20052;-38
2023/10/14 10:19:53;;;;;;;5.40;0.57;;;;;;;;;;4981141;28;20929;-38
2023/10/14 10:22:21;;;;;;;5.15;0.60;;;;;;;;;;4992981;28;20053;-42
2023/10/14 10:24:49;;;;;;;7.98;1.96;;;;;;;;;;4634199;28;10000469;-38
2023/10/14 10:27:17;;;;;;;4.80;0.30;;;;;;;;;;4980885;28;20072;-38
2023/10/14 10:29:48;;;;;;;6.30;0.35;;;;;;;;;;4990580;28;20299;-39
2023/10/14 10:32:20;;;;;;;4.30;0.23;;;;;;;;;;4995229;28;20056;-38
2023/10/14 10:35:09;;;;;;;5.65;0.30;;;;;;;;;;4987519;28;20038;-38
2023/10/14 10:37:40;;;;;;;3.67;0.30;;;;;;;;;;4999314;28;20052;-38
2023/10/14 10:40:10;;;;;;;4.63;0.30;;;;;;;;;;4970169;28;21090;-38
2023/10/14 10:42:41;;;;;;;5.03;0.40;;;;;;;;;;5000909;28;20065;-39
2023/10/14 10:45:20;;;;;;;4.40;0.20;;;;;;;;;;4992846;28;20038;-40
2023/10/14 10:48:00;;;;;;;3.28;0.38;;;;;;;;;;5003860;28;20037;-38
2023/10/14 10:50:34;;;;;;;3.53;0.30;;;;;;;;;;5005350;28;20469;-38
2023/10/14 10:53:21;;;;;;;2.50;0.30;;;;;;;;;;4945898;28;20651;-39
2023/10/14 10:55:51;;;;;;;2.65;0.30;;;;;;;;;;4989077;28;20060;-39
2023/10/14 10:58:21;;;;;;;5.13;0.30;;;;;;;;;;5009221;28;20100;-39
2023/10/14 11:00:51;;;;;;;2.55;0.40;;;;;;;;;;4996635;28;20128;-38
2023/10/14 11:03:23;;;;;;;4.45;0.45;;;;;;;;;;5005964;28;20388;-40
2023/10/14 11:05:53;;;;;;;4.82;0.43;;;;;;;;;;5003292;28;20037;-39
2023/10/14 11:08:22;;;;;;;9.48;1.42;;;;;;;;;;5008375;28;20505;-39
2023/10/14 11:10:51;;;;;;;4.57;0.63;;;;;;;;;;5003236;28;20053;-40
2023/10/14 11:13:18;;;;;;;4.05;0.40;;;;;;;;;;4999407;28;20052;-38
2023/10/14 11:15:48;;;;;;;4.25;0.50;;;;;;;;;;5018638;28;20502;-38
2023/10/14 11:18:18;;;;;;;3.90;0.40;;;;;;;;;;5004744;28;20037;-38
2023/10/14 11:21:05;;;;;;;5.15;0.60;;;;;;;;;;5000249;28;20053;-39
2023/10/14 11:23:36;;;;;;;3.30;0.40;;;;;;;;;;5012112;28;20048;-38
2023/10/14 11:26:09;;;;;;;3.80;0.35;;;;;;;;;;4995777;28;21380;-39
2023/10/14 11:28:37;;;;;;;6.47;0.60;;;;;;;;;;5009457;28;20066;-38
2023/10/14 11:31:07;;;;;;;3.38;0.30;;;;;;;;;;4997898;28;20566;-38
2023/10/14 11:33:36;;;;;;;4.88;0.70;;;;;;;;;;5002239;28;20488;-38
2023/10/14 11:36:04;;;;;;;3.50;0.33;;;;;;;;;;5005537;28;20896;-38
2023/10/14 11:38:33;;;;;;;6.22;0.57;;;;;;;;;;5003656;28;20045;-38
2023/10/14 11:41:02;;;;;;;4.95;0.45;;;;;;;;;;5004648;28;20041;-39
2023/10/14 11:43:30;;;;;;;3.33;0.40;;;;;;;;;;5002921;28;20517;-39
2023/10/14 11:46:02;;;;;;;5.53;0.50;;;;;;;;;;4993521;28;20136;-38
2023/10/14 11:48:33;;;;;;;4.70;0.40;;;;;;;;;;5003097;28;20041;-41
2023/10/14 11:51:03;;;;;;;4.30;0.63;;;;;;;;;;4991764;28;20562;-38
2023/10/14 11:53:32;;;;;;;8.88;0.70;;;;;;;;;;5010611;28;20042;-38
2023/10/14 11:56:00;;;;;;;3.88;0.40;;;;;;;;;;4995866;28;20041;-39
2023/10/14 11:58:29;;;;;;;6.47;0.47;;;;;;;;;;5005484;28;20245;-39
2023/10/14 12:00:57;;;;;;;6.10;0.47;;;;;;;;;;5004690;28;20201;-38
2023/10/14 12:03:26;;;;;;;4.35;0.20;;;;;;;;;;5009202;28;20049;-38
2023/10/14 12:05:57;;;;;;;3.60;0.35;;;;;;;;;;4996219;28;20041;-38
2023/10/14 12:08:27;;;;;;;5.22;0.50;;;;;;;;;;5004095;28;20092;-39
2023/10/14 12:10:57;;;;;;;8.45;0.40;;;;;;;;;;5008489;28;20049;-38
2023/10/14 12:13:25;;;;;;;5.73;0.70;;;;;;;;;;4999313;28;20049;-38
2023/10/14 12:16:13;;;;;;;4.20;0.38;;;;;;;;;;4990108;28;20180;-38
2023/10/14 12:18:42;;;;;;;4.72;0.60;;;;;;;;;;4997611;28;20052;-38
2023/10/14 12:21:09;;;;;;;4.47;0.30;;;;;;;;;;5003840;28;20048;-38
2023/10/14 12:23:39;;;;;;;4.60;0.50;;;;;;;;;;4999303;28;20047;-38
2023/10/14 12:26:13;;;;;;;5.23;0.40;;;;;;;;;;5007202;28;20048;-40
2023/10/14 12:28:57;;;;;;;2.40;0.20;;;;;;;;;;4615098;28;10001657;-39
2023/10/14 12:31:27;;;;;;;3.85;0.20;;;;;;;;;;5000119;28;20750;-39
2023/10/14 12:33:58;;;;;;;4.97;0.50;;;;;;;;;;5003824;28;20076;-38
2023/10/14 12:36:27;;;;;;;4.97;0.47;;;;;;;;;;4988918;28;20041;-38
2023/10/14 12:38:56;;;;;;;3.43;0.43;;;;;;;;;;5002150;28;20406;-38
2023/10/14 12:41:24;;;;;;;4.32;0.40;;;;;;;;;;5003601;28;20033;-38
2023/10/14 12:43:52;;;;;;;3.47;0.60;;;;;;;;;;4998407;28;20044;-38
2023/10/14 12:46:22;;;;;;;6.03;0.60;;;;;;;;;;4999711;28;20038;-38
2023/10/14 12:48:50;;;;;;;3.67;0.40;;;;;;;;;;4973561;28;20584;-38
2023/10/14 12:51:25;;;;;;;2.97;0.40;;;;;;;;;;4999528;28;20353;-38
2023/10/14 12:53:57;;;;;;;3.67;0.45;;;;;;;;;;5000800;28;20057;-38
2023/10/14 12:56:30;;;;;;;3.80;0.73;;;;;;;;;;5018208;28;20462;-39
2023/10/14 12:58:58;;;;;;;4.63;1.95;;;;;;;;;;5001563;28;20053;-38
2023/10/14 13:01:26;;;;;;;5.43;0.57;;;;;;;;;;5003590;28;20060;-38
2023/10/14 13:04:00;;;;;;;3.67;0.30;;;;;;;;;;5005370;28;20033;-38
2023/10/14 13:06:29;;;;;;;3.53;0.55;;;;;;;;;;4995002;28;20065;-38
2023/10/14 13:08:58;;;;;;;3.45;0.50;;;;;;;;;;4999702;28;20041;-38
2023/10/14 13:11:26;;;;;;;5.03;0.40;;;;;;;;;;4998100;28;20189;-38
2023/10/14 13:13:55;;;;;;;5.15;0.50;;;;;;;;;;4993074;28;20052;-38
2023/10/14 13:16:25;;;;;;;5.00;0.70;;;;;;;;;;5002931;28;20546;-38
2023/10/14 13:18:56;;;;;;;4.65;0.60;;;;;;;;;;4996506;28;20022;-38
2023/10/14 13:21:29;;;;;;;4.53;0.60;;;;;;;;;;4999779;28;20072;-38
2023/10/14 13:23:57;;;;;;;2.83;0.40;;;;;;;;;;4980803;28;20496;-38
2023/10/14 13:26:25;;;;;;;3.75;0.50;;;;;;;;;;4992038;28;20045;-41
2023/10/14 13:28:53;;;;;;;6.07;0.50;;;;;;;;;;5017254;28;20052;-39
2023/10/14 13:31:24;;;;;;;3.38;0.57;;;;;;;;;;4989938;28;20041;-38
2023/10/14 13:34:09;;;;;;;5.47;0.65;;;;;;;;;;4994853;28;21053;-38
2023/10/14 13:36:37;;;;;;;6.18;0.40;;;;;;;;;;5000078;28;20046;-38
2023/10/14 13:39:34;;;;;;;6.57;0.60;;;;;;;;;;4994954;28;20037;-38
2023/10/14 13:42:03;;;;;;;3.67;0.37;;;;;;;;;;5003241;28;20037;-38
2023/10/14 13:44:31;;;;;;;5.47;0.50;;;;;;;;;;4973881;28;20048;-38
2023/10/14 13:47:04;;;;;;;4.22;0.40;;;;;;;;;;5009748;28;20052;-38
2023/10/14 13:49:33;;;;;;;3.63;0.40;;;;;;;;;;4991187;28;20167;-39
2023/10/14 13:52:03;;;;;;;3.20;0.52;;;;;;;;;;4994682;28;20045;-38
2023/10/14 13:54:31;;;;;;;3.37;0.40;;;;;;;;;;4992391;28;20044;-38
2023/10/14 13:57:00;;;;;;;2.95;0.30;;;;;;;;;;4997174;28;20659;-39
2023/10/14 13:59:28;;;;;;;4.28;0.50;;;;;;;;;;4972812;28;20065;-38
2023/10/14 14:01:56;;;;;;;4.35;0.60;;;;;;;;;;5004406;28;20037;-39
2023/10/14 14:04:32;;;;;;;3.75;0.52;;;;;;;;;;4984579;28;20045;-38
2023/10/14 14:07:01;;;;;;;3.43;0.50;;;;;;;;;;5002823;28;20140;-39
2023/10/14 14:09:30;;;;;;;4.68;0.50;;;;;;;;;;4994305;28;20045;-38
2023/10/14 14:11:58;;;;;;;4.13;0.52;;;;;;;;;;4995561;28;20037;-38
2023/10/14 14:14:25;;;;;;;3.15;0.40;;;;;;;;;;4990673;28;20045;-38
2023/10/14 14:16:53;;;;;;;2.33;0.50;;;;;;;;;;4998500;28;20139;-38
2023/10/14 14:19:21;;;;;;;3.73;0.40;;;;;;;;;;4988787;28;20037;-38
2023/10/14 14:21:51;;;;;;;2.65;0.40;;;;;;;;;;4988883;28;20095;-38
2023/10/14 14:24:22;;;;;;;3.55;0.60;;;;;;;;;;4965905;28;20261;-38
2023/10/14 14:26:50;;;;;;;3.83;0.40;;;;;;;;;;4981682;28;20033;-38
2023/10/14 14:29:17;;;;;;;2.72;0.40;;;;;;;;;;4994816;28;20816;-39
2023/10/14 14:31:46;;;;;;;2.80;0.50;;;;;;;;;;4997539;28;20487;-39
2023/10/14 14:34:14;;;;;;;4.47;0.60;;;;;;;;;;4995706;28;20144;-38
2023/10/14 14:36:44;;;;;;;3.05;0.40;;;;;;;;;;4983454;28;20049;-38
2023/10/14 14:39:15;;;;;;;3.75;0.43;;;;;;;;;;5002561;28;20495;-38
2023/10/14 14:41:44;;;;;;;2.97;0.30;;;;;;;;;;4997685;28;20292;-38
2023/10/14 14:44:13;;;;;;;3.37;0.40;;;;;;;;;;4970654;28;20045;-38
2023/10/14 14:46:42;;;;;;;3.28;0.30;;;;;;;;;;4999734;28;20037;-38
2023/10/14 14:49:12;;;;;;;5.15;0.38;;;;;;;;;;4991594;28;20113;-38
2023/10/14 14:51:42;;;;;;;4.28;0.30;;;;;;;;;;4996598;28;20455;-38
2023/10/14 14:54:10;;;;;;;2.40;0.30;;;;;;;;;;4990069;28;20045;-38
2023/10/14 14:56:39;;;;;;;3.70;0.50;;;;;;;;;;5014203;28;20534;-38
2023/10/14 14:59:13;;;;;;;2.90;0.30;;;;;;;;;;4985097;28;20061;-38
2023/10/14 15:01:41;;;;;;;2.60;0.50;;;;;;;;;;4977898;28;20056;-38
2023/10/14 15:04:09;;;;;;;5.25;0.75;;;;;;;;;;4980141;28;20109;-38
2023/10/14 15:06:38;;;;;;;3.15;0.52;;;;;;;;;;5011344;28;20127;-38
2023/10/14 15:09:07;;;;;;;3.27;0.30;;;;;;;;;;4994095;28;20052;-38
2023/10/14 15:11:34;;;;;;;2.67;0.30;;;;;;;;;;5004330;28;20037;-38